Atlas, Illinois
Current Conditions -  °F | °C
As of 4:35 AM on Sunday 21 Dec 2014 (Local Time) from KPPQ Reporting Station
Overcast Overcast  
Wind Chill: 34°   Ceiling: 2100
Heat Index: 38°   Visibility: 7mi
Dew Point: 35°   Wind: 5mph
Humidity: 89%   Direction: 130°SE
Pressure: 30.18"   Gusts: NA
Location:  39.5365°N, 91.0118°W
Report Text: KPPQ 211035Z AUTO 13004KT 7SM OVC021 03/02 A3018 RMK AO2 T00320015
Loading
Personal Weather Stations






























Interactive Weather Map New forecast layout! Learn more

10-Day Weather Forecast

Advertisements
Track Severe Weather on mobile